createdAt,value
2022-10-31T00:00:48.894Z,10.73
2022-10-31T00:03:17.420Z,10.72
2022-10-31T00:05:46.617Z,10.72
2022-10-31T00:08:14.971Z,10.72
2022-10-31T00:10:43.537Z,10.73
2022-10-31T00:13:12.657Z,10.75
2022-10-31T00:15:42.423Z,10.78
2022-10-31T00:18:11.618Z,10.78
2022-10-31T00:20:40.102Z,10.79
2022-10-31T00:23:08.962Z,10.73
2022-10-31T00:25:39.624Z,10.75
2022-10-31T00:28:08.570Z,10.73
2022-10-31T00:30:36.820Z,10.68
2022-10-31T00:33:07.330Z,10.68
2022-10-31T00:35:35.258Z,10.66
2022-10-31T00:38:03.057Z,10.67
2022-10-31T00:40:31.058Z,10.66
2022-10-31T00:42:59.517Z,10.61
2022-10-31T00:45:27.607Z,10.56
2022-10-31T00:47:55.529Z,10.55
2022-10-31T00:50:24.930Z,10.55
2022-10-31T00:52:52.905Z,10.52
2022-10-31T00:55:20.879Z,10.47
2022-10-31T00:57:48.956Z,10.47
2022-10-31T01:00:17.326Z,10.44
2022-10-31T01:02:45.319Z,10.42
2022-10-31T01:05:13.747Z,10.42
2022-10-31T01:07:43.552Z,10.42
2022-10-31T01:10:12.044Z,10.43
2022-10-31T01:12:39.955Z,10.44
2022-10-31T01:15:09.269Z,10.47
2022-10-31T01:17:37.096Z,10.48
2022-10-31T01:20:05.831Z,10.48
2022-10-31T01:22:33.952Z,10.47
2022-10-31T01:25:03.372Z,10.44
2022-10-31T01:27:31.295Z,10.40
2022-10-31T01:29:59.335Z,10.39
2022-10-31T01:32:27.815Z,10.40
2022-10-31T01:34:55.599Z,10.38
2022-10-31T01:37:23.445Z,10.40
2022-10-31T01:39:51.253Z,10.36
2022-10-31T01:42:24.136Z,10.28
2022-10-31T01:45:01.333Z,10.27
2022-10-31T01:47:36.539Z,10.25
2022-10-31T01:50:07.906Z,10.27
2022-10-31T01:52:39.882Z,10.27
2022-10-31T01:55:09.521Z,10.26
2022-10-31T01:57:40.146Z,10.24
2022-10-31T02:00:10.708Z,10.24
2022-10-31T02:02:38.827Z,10.19
2022-10-31T02:05:09.524Z,10.14
2022-10-31T02:07:40.994Z,10.15
2022-10-31T02:10:09.461Z,10.16
2022-10-31T02:12:39.028Z,10.14
2022-10-31T02:15:08.460Z,10.11
2022-10-31T02:17:36.649Z,10.09
2022-10-31T02:20:14.340Z,10.08
2022-10-31T02:22:56.322Z,10.02
2022-10-31T02:25:39.282Z,10.00
2022-10-31T02:28:21.875Z,9.96
2022-10-31T02:31:03.649Z,9.98
2022-10-31T02:33:35.197Z,9.99
2022-10-31T02:36:07.814Z,9.98
2022-10-31T02:38:46.860Z,9.94
2022-10-31T02:41:22.121Z,9.91
2022-10-31T02:43:57.747Z,9.88
2022-10-31T02:46:31.158Z,9.87
2022-10-31T02:49:03.634Z,9.83
2022-10-31T02:51:32.029Z,9.79
2022-10-31T02:53:59.888Z,9.77
2022-10-31T02:56:27.953Z,9.77
2022-10-31T02:58:57.775Z,9.73
2022-10-31T03:02:04.112Z,9.68
2022-10-31T03:04:43.695Z,9.67
2022-10-31T03:07:18.974Z,9.69
2022-10-31T03:09:53.910Z,9.69
2022-10-31T03:12:27.325Z,9.68
2022-10-31T03:14:59.214Z,9.67
2022-10-31T03:17:32.055Z,9.62
2022-10-31T03:20:03.693Z,9.58
2022-10-31T03:22:34.571Z,9.58
2022-10-31T03:25:04.747Z,9.56
2022-10-31T03:27:35.358Z,9.51
2022-10-31T03:30:06.059Z,9.48
2022-10-31T03:32:38.757Z,9.46
2022-10-31T03:35:10.469Z,9.41
2022-10-31T03:37:41.639Z,9.40
2022-10-31T03:40:12.386Z,9.35
2022-10-31T03:42:42.399Z,9.35
2022-10-31T03:45:13.919Z,9.34
2022-10-31T03:47:42.598Z,9.36
2022-10-31T03:50:13.850Z,9.28
2022-10-31T03:52:45.554Z,9.20
2022-10-31T03:55:19.840Z,9.19
2022-10-31T03:57:54.030Z,9.08
2022-10-31T04:00:22.250Z,9.08
2022-10-31T04:02:55.889Z,9.05
2022-10-31T04:05:25.647Z,9.00
2022-10-31T04:07:56.079Z,8.95
2022-10-31T04:10:30.127Z,8.93
2022-10-31T04:13:03.842Z,8.89
2022-10-31T04:15:33.438Z,8.88
2022-10-31T04:18:02.855Z,8.89
2022-10-31T04:20:37.034Z,8.92
2022-10-31T04:23:07.212Z,8.96
2022-10-31T04:25:36.707Z,8.96
2022-10-31T04:28:04.952Z,8.96
2022-10-31T04:30:32.965Z,8.97
2022-10-31T04:33:01.040Z,8.95
2022-10-31T04:35:29.133Z,8.95
2022-10-31T04:37:58.394Z,8.96
2022-10-31T04:40:26.455Z,8.98
2022-10-31T04:42:54.345Z,8.99
2022-10-31T04:45:22.228Z,8.98
2022-10-31T04:47:50.131Z,8.98
2022-10-31T04:50:18.173Z,8.94
2022-10-31T04:52:46.776Z,8.94
2022-10-31T04:55:16.478Z,8.92
2022-10-31T04:57:44.875Z,8.92
2022-10-31T05:00:14.558Z,8.92
2022-10-31T05:02:46.242Z,8.87
2022-10-31T05:05:14.526Z,8.87
2022-10-31T05:07:43.033Z,8.86
2022-10-31T05:10:12.034Z,8.83
2022-10-31T05:12:48.008Z,8.82
2022-10-31T05:15:16.579Z,8.82
2022-10-31T05:17:44.741Z,8.79
2022-10-31T05:20:12.882Z,8.78
2022-10-31T05:22:44.783Z,8.74
2022-10-31T05:25:13.108Z,8.69
2022-10-31T05:27:43.310Z,8.69
2022-10-31T05:30:13.134Z,8.66
2022-10-31T05:32:41.527Z,8.62
2022-10-31T05:35:10.556Z,8.61
2022-10-31T05:37:38.583Z,8.56
2022-10-31T05:40:08.616Z,8.52
2022-10-31T05:42:36.984Z,8.46
2022-10-31T05:45:07.509Z,8.41
2022-10-31T05:47:35.660Z,8.42
2022-10-31T05:50:03.486Z,8.37
2022-10-31T05:52:31.399Z,8.38
2022-10-31T05:54:59.246Z,8.38
2022-10-31T05:57:27.291Z,8.34
2022-10-31T05:59:55.377Z,8.31
2022-10-31T06:02:24.655Z,8.30
2022-10-31T06:04:52.466Z,8.25
2022-10-31T06:07:20.321Z,8.22
2022-10-31T06:09:48.020Z,8.20
2022-10-31T06:12:15.843Z,8.18
2022-10-31T06:14:43.662Z,8.16
2022-10-31T06:17:11.412Z,8.16
2022-10-31T06:19:40.787Z,8.18
2022-10-31T06:22:08.799Z,8.16
2022-10-31T06:24:36.844Z,8.19
2022-10-31T06:27:04.900Z,8.19
2022-10-31T06:29:32.720Z,8.20
2022-10-31T06:32:00.995Z,8.22
2022-10-31T06:34:28.925Z,8.26
2022-10-31T06:36:58.236Z,8.30
2022-10-31T06:39:26.018Z,8.37
2022-10-31T06:41:54.001Z,8.42
2022-10-31T06:44:24.150Z,8.52
2022-10-31T06:46:52.194Z,8.63
2022-10-31T06:49:20.197Z,8.70
2022-10-31T06:51:49.619Z,8.77
2022-10-31T06:54:19.272Z,8.84
2022-10-31T06:56:48.152Z,8.94
2022-10-31T06:59:15.984Z,9.02
2022-10-31T07:01:43.882Z,9.10
2022-10-31T07:04:12.011Z,9.19
2022-10-31T07:06:40.260Z,9.27
2022-10-31T07:09:08.318Z,9.37
2022-10-31T07:11:37.537Z,9.48
2022-10-31T07:14:05.497Z,9.57
2022-10-31T07:16:33.326Z,9.68
2022-10-31T07:19:01.127Z,9.77
2022-10-31T07:21:29.053Z,9.89
2022-10-31T07:23:57.041Z,9.98
2022-10-31T07:26:24.952Z,10.09
2022-10-31T07:28:54.260Z,10.16
2022-10-31T07:31:22.201Z,10.24
2022-10-31T07:33:50.103Z,10.35
2022-10-31T07:36:18.092Z,10.45
2022-10-31T07:38:46.210Z,10.57
2022-10-31T07:41:14.077Z,10.68
2022-10-31T07:43:41.976Z,10.80
2022-10-31T07:46:12.421Z,10.92
2022-10-31T07:48:40.378Z,11.05
2022-10-31T07:51:08.447Z,11.15
2022-10-31T07:53:36.324Z,11.23
2022-10-31T07:56:04.318Z,11.34
2022-10-31T07:58:32.224Z,11.39
2022-10-31T08:01:00.372Z,11.50
2022-10-31T08:03:29.936Z,11.66
2022-10-31T08:05:59.562Z,11.80
2022-10-31T08:08:31.238Z,11.97
2022-10-31T08:11:01.320Z,12.12
2022-10-31T08:13:29.309Z,12.26
2022-10-31T08:15:57.287Z,12.39
2022-10-31T08:18:25.261Z,12.56
2022-10-31T08:20:55.811Z,12.70
2022-10-31T08:23:24.156Z,12.83
2022-10-31T08:25:52.155Z,12.97
2022-10-31T08:28:20.054Z,13.07
2022-10-31T08:30:48.465Z,13.19
2022-10-31T08:33:18.896Z,13.29
2022-10-31T08:35:47.252Z,13.43
2022-10-31T08:38:16.566Z,13.56
2022-10-31T08:40:44.808Z,13.68
2022-10-31T08:43:14.785Z,13.83
2022-10-31T08:45:43.559Z,14.03
2022-10-31T08:48:13.473Z,14.21
2022-10-31T08:50:41.485Z,14.32
2022-10-31T08:53:11.293Z,14.46
2022-10-31T08:55:41.292Z,14.66
2022-10-31T08:58:14.585Z,14.84
2022-10-31T09:00:42.545Z,15.02
2022-10-31T09:03:13.227Z,15.19
2022-10-31T09:05:41.272Z,15.32
2022-10-31T09:08:14.738Z,15.33
2022-10-31T09:10:45.606Z,15.37
2022-10-31T09:13:15.123Z,15.37
2022-10-31T09:15:44.792Z,15.50
2022-10-31T09:18:13.334Z,15.62
2022-10-31T09:20:42.399Z,15.77
2022-10-31T09:23:12.565Z,15.91
2022-10-31T09:25:41.779Z,16.01
2022-10-31T09:28:14.668Z,16.16
2022-10-31T09:30:42.456Z,16.36
2022-10-31T09:33:12.439Z,16.55
2022-10-31T09:35:40.701Z,16.71
2022-10-31T09:38:11.001Z,16.86
2022-10-31T09:40:40.440Z,17.01
2022-10-31T09:43:17.943Z,17.17
2022-10-31T09:45:53.531Z,17.28
2022-10-31T09:48:38.179Z,17.38
2022-10-31T09:51:08.176Z,17.51
2022-10-31T09:53:40.171Z,17.63
2022-10-31T09:56:10.246Z,17.75
2022-10-31T09:58:44.415Z,17.83
2022-10-31T10:01:22.501Z,17.94
2022-10-31T10:03:52.356Z,17.97
2022-10-31T10:06:24.472Z,18.04
2022-10-31T10:08:52.205Z,18.03
2022-10-31T10:11:31.391Z,18.11
2022-10-31T10:14:09.953Z,18.21
2022-10-31T10:16:51.082Z,18.28
2022-10-31T10:19:35.130Z,18.44
2022-10-31T10:22:07.407Z,18.58
2022-10-31T10:24:50.433Z,18.62
2022-10-31T10:27:23.553Z,18.69
2022-10-31T10:30:00.460Z,18.80
2022-10-31T10:32:31.158Z,18.91
2022-10-31T10:35:04.608Z,19.04
2022-10-31T10:37:35.034Z,19.11
2022-10-31T10:40:09.704Z,19.17
2022-10-31T10:42:55.429Z,19.28
2022-10-31T10:45:48.353Z,19.32
2022-10-31T10:48:18.061Z,19.48
2022-10-31T10:50:49.887Z,19.60
2022-10-31T10:53:36.275Z,19.76
2022-10-31T10:56:13.239Z,19.91
2022-10-31T10:58:42.790Z,19.98
2022-10-31T11:03:47.244Z,20.12
2022-10-31T11:06:23.452Z,20.24
2022-10-31T11:08:52.266Z,20.35
2022-10-31T11:11:30.807Z,20.35
2022-10-31T11:14:04.274Z,20.32
2022-10-31T11:16:41.367Z,20.32
2022-10-31T11:19:28.552Z,20.36
2022-10-31T11:21:56.588Z,20.35
2022-10-31T11:24:27.260Z,20.42
2022-10-31T11:27:07.681Z,20.51
2022-10-31T11:29:38.090Z,20.55
2022-10-31T11:32:07.662Z,20.58
2022-10-31T11:34:39.305Z,20.61
2022-10-31T11:37:11.990Z,20.49
2022-10-31T11:39:43.284Z,20.35
2022-10-31T11:42:12.273Z,20.03
2022-10-31T11:44:43.899Z,19.70
2022-10-31T11:47:16.836Z,19.27
2022-10-31T11:49:47.485Z,18.98
2022-10-31T11:52:17.056Z,18.83
2022-10-31T11:54:48.984Z,18.83
2022-10-31T11:57:30.672Z,18.88
2022-10-31T11:59:59.741Z,18.92
2022-10-31T12:02:29.484Z,19.09
2022-10-31T12:05:03.322Z,19.06
2022-10-31T12:07:31.609Z,19.21
2022-10-31T12:10:00.567Z,19.34
2022-10-31T12:12:44.306Z,19.59
2022-10-31T12:15:24.798Z,19.68
2022-10-31T12:20:40.419Z,19.74
2022-10-31T12:23:12.880Z,19.73
2022-10-31T12:25:46.628Z,19.83
2022-10-31T12:28:34.064Z,20.01
2022-10-31T12:31:10.100Z,20.22
2022-10-31T12:33:50.215Z,20.34
2022-10-31T12:36:38.092Z,20.50
2022-10-31T12:39:19.487Z,20.50
2022-10-31T12:41:51.277Z,20.54
2022-10-31T12:45:03.865Z,20.54
2022-10-31T12:47:57.366Z,20.70
2022-10-31T12:50:32.629Z,20.69
2022-10-31T12:53:10.719Z,20.59
2022-10-31T13:28:47.197Z,20.24
2022-10-31T13:32:00.782Z,20.13
2022-10-31T13:34:35.116Z,20.17
2022-10-31T13:37:07.620Z,20.17
2022-10-31T13:39:47.802Z,20.13
2022-10-31T13:42:21.285Z,20.14
2022-10-31T13:44:50.379Z,20.13
2022-10-31T13:47:26.859Z,20.08
2022-10-31T13:50:06.377Z,20.16
2022-10-31T13:52:34.230Z,20.20
2022-10-31T13:55:01.969Z,20.24
2022-10-31T13:57:34.623Z,20.25
2022-10-31T14:00:07.310Z,20.25
2022-10-31T14:02:37.292Z,20.21
2022-10-31T14:05:10.010Z,20.17
2022-10-31T14:07:45.247Z,20.20
2022-10-31T14:10:23.831Z,20.23
2022-10-31T14:12:51.782Z,20.22
2022-10-31T14:15:22.504Z,20.21
2022-10-31T14:17:52.983Z,20.17
2022-10-31T14:20:41.975Z,20.17
2022-10-31T14:23:29.110Z,20.14
2022-10-31T14:26:08.961Z,20.12
2022-10-31T14:28:39.093Z,20.04
2022-10-31T14:31:37.459Z,20.01
2022-10-31T14:34:21.533Z,20.01
2022-10-31T14:37:11.221Z,20.03
2022-10-31T14:39:44.555Z,19.93
2022-10-31T14:42:23.764Z,19.93
2022-10-31T14:45:20.766Z,19.89
2022-10-31T14:48:05.178Z,19.85
2022-10-31T14:50:43.867Z,19.82
2022-10-31T14:53:17.137Z,19.80
2022-10-31T15:22:57.703Z,18.92
2022-10-31T15:25:26.992Z,18.99
2022-10-31T15:27:55.228Z,18.85
2022-10-31T15:30:24.896Z,18.73
2022-10-31T15:33:01.107Z,18.71
2022-10-31T15:35:30.696Z,18.72
2022-10-31T15:38:02.602Z,18.76
2022-10-31T15:40:30.688Z,18.76
2022-10-31T15:43:01.603Z,18.74
2022-10-31T15:45:31.468Z,18.73
2022-10-31T15:48:01.371Z,18.61
2022-10-31T15:50:34.946Z,18.36
2022-10-31T15:53:05.617Z,18.23
2022-10-31T15:55:38.048Z,18.24
2022-10-31T15:58:06.431Z,18.07
2022-10-31T16:00:35.619Z,17.83
2022-10-31T16:03:06.392Z,17.53
2022-10-31T16:05:39.550Z,17.28
2022-10-31T16:08:25.823Z,16.94
2022-10-31T16:10:53.910Z,16.85
2022-10-31T16:13:37.751Z,16.72
2022-10-31T16:19:05.065Z,16.59
2022-10-31T16:21:39.207Z,16.55
2022-10-31T16:27:04.915Z,16.71
2022-10-31T16:29:37.649Z,16.59
2022-10-31T16:32:06.685Z,16.46
2022-10-31T16:34:39.781Z,16.32
2022-10-31T16:37:09.609Z,16.35
2022-10-31T16:39:40.257Z,16.26
2022-10-31T16:42:11.315Z,16.22
2022-10-31T16:44:39.151Z,16.21
2022-10-31T16:47:12.095Z,16.08
2022-10-31T16:49:39.757Z,15.93
2022-10-31T16:52:07.969Z,15.81
2022-10-31T16:54:35.786Z,15.72
2022-10-31T16:57:06.405Z,15.71
2022-10-31T16:59:35.132Z,15.72
2022-10-31T17:02:03.752Z,15.67
2022-10-31T17:04:31.778Z,15.46
2022-10-31T17:06:59.604Z,15.28
2022-10-31T17:09:27.926Z,15.22
2022-10-31T17:11:55.986Z,14.99
2022-10-31T17:14:25.257Z,15.09
2022-10-31T17:16:53.281Z,15.07
2022-10-31T17:19:21.046Z,14.79
2022-10-31T17:21:49.011Z,14.70
2022-10-31T17:24:17.118Z,14.58
2022-10-31T17:26:45.465Z,14.59
2022-10-31T17:29:13.584Z,14.50
2022-10-31T17:31:43.683Z,14.54
2022-10-31T17:34:11.345Z,14.54
2022-10-31T17:36:39.120Z,14.44
2022-10-31T17:39:09.614Z,14.37
2022-10-31T17:41:37.389Z,14.24
2022-10-31T17:44:05.505Z,14.22
2022-10-31T17:46:33.288Z,14.00
2022-10-31T17:49:03.192Z,14.00
2022-10-31T17:51:30.941Z,14.03
2022-10-31T17:53:59.334Z,14.03
2022-10-31T17:56:26.996Z,13.96
2022-10-31T17:58:57.228Z,13.93
2022-10-31T18:01:25.261Z,13.86
2022-10-31T18:03:53.065Z,13.77
2022-10-31T18:06:22.137Z,13.75
2022-10-31T18:08:49.911Z,13.71
2022-10-31T18:11:18.961Z,13.60
2022-10-31T18:13:46.736Z,13.57
2022-10-31T18:16:17.380Z,13.46
2022-10-31T18:18:45.155Z,13.44
2022-10-31T18:21:12.982Z,13.44
2022-10-31T18:23:42.135Z,13.41
2022-10-31T18:26:09.912Z,13.33
2022-10-31T18:28:37.785Z,13.22
2022-10-31T18:31:06.084Z,13.11
2022-10-31T18:33:33.724Z,13.06
2022-10-31T18:36:06.861Z,12.97
2022-10-31T18:38:34.677Z,12.94
2022-10-31T18:41:03.942Z,12.85
2022-10-31T18:43:31.670Z,12.79
2022-10-31T18:46:02.282Z,12.75
2022-10-31T18:48:31.387Z,12.67
2022-10-31T18:50:59.290Z,12.59
2022-10-31T18:53:27.052Z,12.48
2022-10-31T18:55:54.910Z,12.47
2022-10-31T18:58:24.085Z,12.42
2022-10-31T19:00:51.913Z,12.35
2022-10-31T19:03:24.889Z,12.27
2022-10-31T19:05:55.733Z,12.21
2022-10-31T19:08:23.619Z,12.20
2022-10-31T19:10:51.401Z,12.21
2022-10-31T19:13:19.088Z,12.16
2022-10-31T19:15:48.124Z,12.10
2022-10-31T19:18:15.872Z,12.10
2022-10-31T19:20:43.685Z,12.04
2022-10-31T19:23:11.543Z,12.00
2022-10-31T19:25:39.474Z,11.97
2022-10-31T19:28:09.155Z,11.94
2022-10-31T19:30:37.024Z,11.95
2022-10-31T19:33:07.903Z,11.95
2022-10-31T19:35:35.862Z,11.94
2022-10-31T19:38:04.566Z,11.83
2022-10-31T19:40:33.730Z,11.73
2022-10-31T19:43:02.530Z,11.65
2022-10-31T19:45:30.316Z,11.65
2022-10-31T19:47:58.243Z,11.66
2022-10-31T19:50:27.746Z,11.68
2022-10-31T19:52:55.366Z,11.65
2022-10-31T19:55:23.086Z,11.50
2022-10-31T19:58:01.720Z,11.42
2022-10-31T20:00:30.099Z,11.41
2022-10-31T20:02:57.973Z,11.41
2022-10-31T20:05:27.237Z,11.49
2022-10-31T20:07:54.887Z,11.51
2022-10-31T20:10:22.530Z,11.50
2022-10-31T20:12:50.162Z,11.44
2022-10-31T20:15:18.066Z,11.39
2022-10-31T20:17:45.851Z,11.37
2022-10-31T20:20:13.710Z,11.31
2022-10-31T20:22:42.861Z,11.27
2022-10-31T20:25:10.550Z,11.25
2022-10-31T20:27:38.206Z,11.22
2022-10-31T20:30:06.884Z,11.13
2022-10-31T20:32:34.703Z,11.05
2022-10-31T20:35:02.442Z,10.99
2022-10-31T20:37:30.301Z,10.94
2022-10-31T20:39:59.450Z,10.99
2022-10-31T20:42:27.285Z,11.00
2022-10-31T20:44:55.131Z,10.98
2022-10-31T20:47:23.487Z,10.97
2022-10-31T20:49:53.684Z,10.93
2022-10-31T20:52:21.572Z,10.92
2022-10-31T20:54:49.402Z,10.88
2022-10-31T20:57:18.481Z,10.85
2022-10-31T20:59:46.115Z,10.84
2022-10-31T21:02:13.888Z,10.78
2022-10-31T21:04:41.639Z,10.77
2022-10-31T21:07:09.689Z,10.78
2022-10-31T21:09:37.486Z,10.71
2022-10-31T21:12:05.774Z,10.67
2022-10-31T21:14:36.463Z,10.64
2022-10-31T21:17:04.607Z,10.60
2022-10-31T21:19:32.434Z,10.57
2022-10-31T21:22:00.372Z,10.55
2022-10-31T21:24:31.743Z,10.53
2022-10-31T21:26:59.512Z,10.54
2022-10-31T21:29:27.208Z,10.56
2022-10-31T21:31:56.156Z,10.51
2022-10-31T21:34:23.842Z,10.49
2022-10-31T21:36:51.587Z,10.49
2022-10-31T21:39:19.491Z,10.49
2022-10-31T21:41:47.194Z,10.50
2022-10-31T21:44:14.853Z,10.48
2022-10-31T21:46:43.071Z,10.48
2022-10-31T21:49:12.507Z,10.45
2022-10-31T21:51:40.884Z,10.44
2022-10-31T21:54:27.551Z,10.45
2022-10-31T21:56:55.587Z,10.42
2022-10-31T21:59:23.363Z,10.41
2022-10-31T22:01:51.387Z,10.40
2022-10-31T22:04:20.913Z,10.42
2022-10-31T22:06:48.583Z,10.43
2022-10-31T22:09:17.211Z,10.36
2022-10-31T22:11:44.845Z,10.37
2022-10-31T22:14:13.558Z,10.36
2022-10-31T22:16:41.826Z,10.35
2022-10-31T22:19:12.176Z,10.36
2022-10-31T22:21:43.313Z,10.34
2022-10-31T22:24:11.739Z,10.33
2022-10-31T22:26:40.257Z,10.32
2022-10-31T22:29:10.944Z,10.22
2022-10-31T22:31:40.030Z,10.19
2022-10-31T22:34:08.127Z,10.18
2022-10-31T22:36:36.244Z,10.17
2022-10-31T22:39:05.597Z,10.19
2022-10-31T22:41:35.137Z,10.18
2022-10-31T22:44:03.923Z,10.19
2022-10-31T22:46:33.279Z,10.23
2022-10-31T22:49:02.418Z,10.23
2022-10-31T22:51:31.992Z,10.20
2022-10-31T22:54:00.088Z,10.17
2022-10-31T22:56:30.760Z,10.14
2022-10-31T22:58:58.730Z,10.05
2022-10-31T23:01:29.623Z,10.00
2022-10-31T23:03:57.693Z,9.98
2022-10-31T23:06:27.040Z,10.00
2022-10-31T23:08:55.489Z,9.97
2022-10-31T23:11:24.984Z,9.97
2022-10-31T23:14:13.751Z,9.97
2022-10-31T23:16:47.196Z,9.94
2022-10-31T23:19:17.254Z,9.91
2022-10-31T23:21:56.073Z,9.90
2022-10-31T23:24:25.536Z,9.87
2022-10-31T23:27:11.485Z,9.87
2022-10-31T23:29:43.551Z,9.85
2022-10-31T23:32:14.363Z,9.83
2022-10-31T23:34:42.034Z,9.78
2022-10-31T23:37:10.389Z,9.74
2022-10-31T23:39:38.352Z,9.69
2022-10-31T23:42:06.558Z,9.66
2022-10-31T23:44:34.210Z,9.68
2022-10-31T23:47:03.331Z,9.68
2022-10-31T23:49:31.058Z,9.62
2022-10-31T23:51:58.908Z,9.60
2022-10-31T23:54:27.368Z,9.59
2022-10-31T23:56:55.440Z,9.60
2022-10-31T23:59:23.317Z,9.59
